Date,TemperatureHighF,TemperatureAvgF,TemperatureLowF,DewpointHighF,DewpointAvgF,DewpointLowF,HumidityHigh,HumidityAvg,HumidityLow,PressureMaxIn,PressureMinIn,WindSpeedMaxMPH,WindSpeedAvgMPH,GustSpeedMaxMPH,PrecipitationSumIn
2013-2-1,29,24,18,23,12,5,88,60,47,30.31,29.78,18,7,30,0.03
2013-2-2,26,20,14,24,13,6,91,73,58,30.32,29.96,8,3,14,0.00
2013-2-3,33,27,20,28,23,18,93,87,66,29.96,29.77,10,2,21,0.03
2013-2-4,35,29,23,24,17,12,71,62,53,30.03,29.85,10,4,25,0.01
2013-2-5,37,32,29,31,27,24,93,80,71,29.89,29.81,3,0,6,0.00
2013-2-6,41,33,26,31,26,21,94,77,58,30.29,29.88,13,3,23,0.01
2013-2-7,37,30,22,28,23,18,90,76,61,30.40,30.18,6,2,10,0.01
2013-2-8,39,34,31,35,30,24,93,84,69,30.18,29.72,14,4,29,0.12
2013-2-9,40,31,23,24,19,16,74,61,44,30.33,29.87,13,5,31,0.01
2013-2-10,44,31,16,22,18,13,91,63,35,30.42,30.18,7,2,14,0.00
2013-2-11,55,43,34,50,39,22,95,85,41,30.18,29.65,12,4,26,0.37
2013-2-12,53,45,31,35,31,26,82,58,45,29.96,29.77,12,4,23,0.06
2013-2-13,43,33,25,33,28,22,93,83,63,29.92,29.63,5,1,10,0.04
2013-2-14,48,36,27,35,30,24,95,79,56,29.96,29.72,6,2,11,0.17
2013-2-15,56,38,28,38,32,24,93,79,48,29.99,29.87,10,2,24,0.19
2013-2-16,37,33,29,33,28,19,95,81,61,29.96,29.80,6,2,13,0.20
2013-2-17,30,26,22,19,14,8,70,60,47,30.13,29.79,14,8,28,0.01
2013-2-18,40,29,17,17,12,7,71,50,37,30.32,30.09,8,4,21,0.00
2013-2-19,44,38,34,40,29,16,92,71,48,30.09,29.65,14,6,23,0.12
2013-2-20,36,29,24,23,16,10,64,58,50,30.10,29.80,19,9,37,0.01
2013-2-21,37,28,22,20,16,12,74,59,49,30.28,30.06,11,6,28,0.01
2013-2-22,32,29,25,28,23,18,87,76,65,30.34,30.17,5,2,11,0.01
2013-2-23,44,37,31,41,34,28,95,92,87,30.17,29.78,4,1,7,0.03
2013-2-24,47,39,30,39,31,21,96,74,49,30.07,29.76,11,4,22,0.01
2013-2-25,47,35,25,30,24,19,84,65,47,30.18,30.06,5,2,10,0.00
2013-2-26,41,34,24,39,30,21,95,89,72,30.18,29.62,9,3,22,0.71
2013-2-27,54,44,37,43,37,34,96,78,52,29.65,29.50,11,4,19,0.61
2013-2-28,46,40,35,36,31,28,82,70,54,29.69,29.59,10,5,21,0.01